sensor_id;sensor_type;location;lat;lon;timestamp;temperature;humidity
48744;DHT22;34538;48.836;9.174;2023-04-15T00:01:27;4.40;99.90
48744;DHT22;34538;48.836;9.174;2023-04-15T00:03:56;4.30;99.90
48744;DHT22;34538;48.836;9.174;2023-04-15T00:06:22;4.30;99.90
48744;DHT22;34538;48.836;9.174;2023-04-15T00:08:49;4.30;99.90
48744;DHT22;34538;48.836;9.174;2023-04-15T00:11:16;4.20;99.90
48744;DHT22;34538;48.836;9.174;2023-04-15T00:13:45;4.20;99.90
48744;DHT22;34538;48.836;9.174;2023-04-15T00:16:12;4.10;99.90
48744;DHT22;34538;48.836;9.174;2023-04-15T00:18:39;4.10;99.90
48744;DHT22;34538;48.836;9.174;2023-04-15T00:21:07;4.10;99.90
48744;DHT22;34538;48.836;9.174;2023-04-15T00:23:34;4.00;99.90
48744;DHT22;34538;48.836;9.174;2023-04-15T00:26:01;4.00;99.90
48744;DHT22;34538;48.836;9.174;2023-04-15T00:28:28;4.00;99.90
48744;DHT22;34538;48.836;9.174;2023-04-15T00:30:56;3.90;99.90
48744;DHT22;34538;48.836;9.174;2023-04-15T00:33:23;3.90;99.90
48744;DHT22;34538;48.836;9.174;2023-04-15T00:35:50;3.90;99.90
48744;DHT22;34538;48.836;9.174;2023-04-15T00:38:18;3.90;99.90
48744;DHT22;34538;48.836;9.174;2023-04-15T00:40:45;3.90;99.90
48744;DHT22;34538;48.836;9.174;2023-04-15T00:43:11;3.80;99.90
48744;DHT22;34538;48.836;9.174;2023-04-15T00:45:38;3.80;99.90
48744;DHT22;34538;48.836;9.174;2023-04-15T00:48:05;3.80;99.90
48744;DHT22;34538;48.836;9.174;2023-04-15T00:50:34;3.70;99.90
48744;DHT22;34538;48.836;9.174;2023-04-15T00:53:00;3.70;99.90
48744;DHT22;34538;48.836;9.174;2023-04-15T00:55:29;3.70;99.90
48744;DHT22;34538;48.836;9.174;2023-04-15T00:57:56;3.70;99.90
48744;DHT22;34538;48.836;9.174;2023-04-15T01:00:23;3.60;99.90
48744;DHT22;34538;48.836;9.174;2023-04-15T01:02:51;3.60;99.90
48744;DHT22;34538;48.836;9.174;2023-04-15T01:05:18;3.60;99.90
48744;DHT22;34538;48.836;9.174;2023-04-15T01:07:46;3.60;99.90
48744;DHT22;34538;48.836;9.174;2023-04-15T01:10:13;3.50;99.90
48744;DHT22;34538;48.836;9.174;2023-04-15T01:12:43;3.50;99.90
48744;DHT22;34538;48.836;9.174;2023-04-15T01:15:10;3.50;99.90
48744;DHT22;34538;48.836;9.174;2023-04-15T01:17:37;3.50;99.90
48744;DHT22;34538;48.836;9.174;2023-04-15T01:20:07;3.40;99.90
48744;DHT22;34538;48.836;9.174;2023-04-15T01:22:37;3.40;99.90
48744;DHT22;34538;48.836;9.174;2023-04-15T01:25:10;3.40;99.90
48744;DHT22;34538;48.836;9.174;2023-04-15T01:27:40;3.40;99.90
48744;DHT22;34538;48.836;9.174;2023-04-15T01:30:09;3.40;99.90
48744;DHT22;34538;48.836;9.174;2023-04-15T01:32:36;3.30;99.90
48744;DHT22;34538;48.836;9.174;2023-04-15T01:35:04;3.30;99.90
48744;DHT22;34538;48.836;9.174;2023-04-15T01:37:31;3.30;99.90
48744;DHT22;34538;48.836;9.174;2023-04-15T01:39:58;3.30;99.90
48744;DHT22;34538;48.836;9.174;2023-04-15T01:42:25;3.20;99.90
48744;DHT22;34538;48.836;9.174;2023-04-15T01:44:54;3.20;99.90
48744;DHT22;34538;48.836;9.174;2023-04-15T01:47:21;3.20;99.90
48744;DHT22;34538;48.836;9.174;2023-04-15T01:49:48;3.10;99.90
48744;DHT22;34538;48.836;9.174;2023-04-15T01:52:15;3.10;99.90
48744;DHT22;34538;48.836;9.174;2023-04-15T01:54:42;3.10;99.90
48744;DHT22;34538;48.836;9.174;2023-04-15T01:57:10;3.00;99.90
48744;DHT22;34538;48.836;9.174;2023-04-15T01:59:37;3.00;99.90
48744;DHT22;34538;48.836;9.174;2023-04-15T02:02:06;3.00;99.90
48744;DHT22;34538;48.836;9.174;2023-04-15T02:04:32;3.00;99.90
48744;DHT22;34538;48.836;9.174;2023-04-15T02:06:59;3.00;99.90
48744;DHT22;34538;48.836;9.174;2023-04-15T02:09:26;3.00;99.90
48744;DHT22;34538;48.836;9.174;2023-04-15T02:11:53;3.00;99.90
48744;DHT22;34538;48.836;9.174;2023-04-15T02:14:20;2.90;99.90
48744;DHT22;34538;48.836;9.174;2023-04-15T02:16:47;2.90;99.90
48744;DHT22;34538;48.836;9.174;2023-04-15T02:19:16;3.00;99.90
48744;DHT22;34538;48.836;9.174;2023-04-15T02:21:43;3.00;99.90
48744;DHT22;34538;48.836;9.174;2023-04-15T02:24:10;3.00;99.90
48744;DHT22;34538;48.836;9.174;2023-04-15T02:26:40;3.00;99.90
48744;DHT22;34538;48.836;9.174;2023-04-15T02:29:06;2.90;99.90
48744;DHT22;34538;48.836;9.174;2023-04-15T02:31:33;2.90;99.90
48744;DHT22;34538;48.836;9.174;2023-04-15T02:34:04;2.90;99.90
48744;DHT22;34538;48.836;9.174;2023-04-15T02:36:33;2.90;99.90
48744;DHT22;34538;48.836;9.174;2023-04-15T02:39:00;2.90;99.90
48744;DHT22;34538;48.836;9.174;2023-04-15T02:41:28;2.80;99.90
48744;DHT22;34538;48.836;9.174;2023-04-15T02:43:55;2.80;99.90
48744;DHT22;34538;48.836;9.174;2023-04-15T02:46:22;2.80;99.90
48744;DHT22;34538;48.836;9.174;2023-04-15T02:48:49;2.80;99.90
48744;DHT22;34538;48.836;9.174;2023-04-15T02:51:18;2.80;99.90
48744;DHT22;34538;48.836;9.174;2023-04-15T02:53:47;2.80;99.90
48744;DHT22;34538;48.836;9.174;2023-04-15T02:56:15;2.70;99.90
48744;DHT22;34538;48.836;9.174;2023-04-15T02:58:43;2.70;99.90
48744;DHT22;34538;48.836;9.174;2023-04-15T03:01:10;2.70;99.90
48744;DHT22;34538;48.836;9.174;2023-04-15T03:03:39;2.60;99.90
48744;DHT22;34538;48.836;9.174;2023-04-15T03:06:05;2.60;99.90
48744;DHT22;34538;48.836;9.174;2023-04-15T03:08:33;2.60;99.90
48744;DHT22;34538;48.836;9.174;2023-04-15T03:11:02;2.60;99.90
48744;DHT22;34538;48.836;9.174;2023-04-15T03:13:29;2.60;99.90
48744;DHT22;34538;48.836;9.174;2023-04-15T03:15:58;2.60;99.90
48744;DHT22;34538;48.836;9.174;2023-04-15T03:18:26;2.60;99.90
48744;DHT22;34538;48.836;9.174;2023-04-15T03:20:53;2.60;99.90
48744;DHT22;34538;48.836;9.174;2023-04-15T03:23:21;2.60;99.90
48744;DHT22;34538;48.836;9.174;2023-04-15T03:25:49;2.70;99.90
48744;DHT22;34538;48.836;9.174;2023-04-15T03:28:17;2.70;99.90
48744;DHT22;34538;48.836;9.174;2023-04-15T03:30:44;2.70;99.90
48744;DHT22;34538;48.836;9.174;2023-04-15T03:33:11;2.60;99.90
48744;DHT22;34538;48.836;9.174;2023-04-15T03:35:38;2.60;99.90
48744;DHT22;34538;48.836;9.174;2023-04-15T03:38:04;2.60;99.90
48744;DHT22;34538;48.836;9.174;2023-04-15T03:40:31;2.60;99.90
48744;DHT22;34538;48.836;9.174;2023-04-15T03:42:58;2.60;99.90
48744;DHT22;34538;48.836;9.174;2023-04-15T03:45:26;2.60;99.90
48744;DHT22;34538;48.836;9.174;2023-04-15T03:47:53;2.60;99.90
48744;DHT22;34538;48.836;9.174;2023-04-15T03:50:20;2.60;99.90
48744;DHT22;34538;48.836;9.174;2023-04-15T03:52:47;2.60;99.90
48744;DHT22;34538;48.836;9.174;2023-04-15T03:55:14;2.60;99.90
48744;DHT22;34538;48.836;9.174;2023-04-15T03:57:41;2.60;99.90
48744;DHT22;34538;48.836;9.174;2023-04-15T04:00:08;2.60;99.90
48744;DHT22;34538;48.836;9.174;2023-04-15T04:02:40;2.60;99.90
48744;DHT22;34538;48.836;9.174;2023-04-15T04:05:07;2.60;99.90
48744;DHT22;34538;48.836;9.174;2023-04-15T04:07:34;2.60;99.90
48744;DHT22;34538;48.836;9.174;2023-04-15T04:10:01;2.50;99.90
48744;DHT22;34538;48.836;9.174;2023-04-15T04:12:29;2.60;99.90
48744;DHT22;34538;48.836;9.174;2023-04-15T04:14:56;2.50;99.90
48744;DHT22;34538;48.836;9.174;2023-04-15T04:17:22;2.50;99.90
48744;DHT22;34538;48.836;9.174;2023-04-15T04:19:51;2.50;99.90
48744;DHT22;34538;48.836;9.174;2023-04-15T04:22:21;2.50;99.90
48744;DHT22;34538;48.836;9.174;2023-04-15T04:24:48;2.50;99.90
48744;DHT22;34538;48.836;9.174;2023-04-15T04:27:15;2.40;99.90
48744;DHT22;34538;48.836;9.174;2023-04-15T04:29:42;2.50;99.90
48744;DHT22;34538;48.836;9.174;2023-04-15T04:32:09;2.50;99.90
48744;DHT22;34538;48.836;9.174;2023-04-15T04:34:36;2.50;99.90
48744;DHT22;34538;48.836;9.174;2023-04-15T04:37:04;2.40;99.90
48744;DHT22;34538;48.836;9.174;2023-04-15T04:39:31;2.40;99.90
48744;DHT22;34538;48.836;9.174;2023-04-15T04:41:58;2.40;99.90
48744;DHT22;34538;48.836;9.174;2023-04-15T04:44:25;2.40;99.90
48744;DHT22;34538;48.836;9.174;2023-04-15T04:46:52;2.30;99.90
48744;DHT22;34538;48.836;9.174;2023-04-15T04:49:19;2.30;99.90
48744;DHT22;34538;48.836;9.174;2023-04-15T04:51:46;2.30;99.90
48744;DHT22;34538;48.836;9.174;2023-04-15T04:54:14;2.30;99.90
48744;DHT22;34538;48.836;9.174;2023-04-15T04:56:42;2.30;99.90
48744;DHT22;34538;48.836;9.174;2023-04-15T04:59:09;2.30;99.90
48744;DHT22;34538;48.836;9.174;2023-04-15T05:01:35;2.30;99.90
48744;DHT22;34538;48.836;9.174;2023-04-15T05:04:02;2.30;99.90
48744;DHT22;34538;48.836;9.174;2023-04-15T05:06:29;2.30;99.90
48744;DHT22;34538;48.836;9.174;2023-04-15T05:08:57;2.30;99.90
48744;DHT22;34538;48.836;9.174;2023-04-15T05:11:25;2.30;99.90
48744;DHT22;34538;48.836;9.174;2023-04-15T05:13:52;2.30;99.90
48744;DHT22;34538;48.836;9.174;2023-04-15T05:16:19;2.30;99.90
48744;DHT22;34538;48.836;9.174;2023-04-15T05:18:46;2.30;99.90
48744;DHT22;34538;48.836;9.174;2023-04-15T05:21:13;2.40;99.90
48744;DHT22;34538;48.836;9.174;2023-04-15T05:23:40;2.40;99.90
48744;DHT22;34538;48.836;9.174;2023-04-15T05:26:07;2.40;99.90
48744;DHT22;34538;48.836;9.174;2023-04-15T05:28:35;2.50;99.90
48744;DHT22;34538;48.836;9.174;2023-04-15T05:31:02;2.50;99.90
48744;DHT22;34538;48.836;9.174;2023-04-15T05:33:29;2.60;99.90
48744;DHT22;34538;48.836;9.174;2023-04-15T05:35:56;2.60;99.90
48744;DHT22;34538;48.836;9.174;2023-04-15T05:38:23;2.70;99.90
48744;DHT22;34538;48.836;9.174;2023-04-15T05:40:50;2.70;99.90
48744;DHT22;34538;48.836;9.174;2023-04-15T05:43:17;2.80;99.90
48744;DHT22;34538;48.836;9.174;2023-04-15T05:45:45;2.90;99.90
48744;DHT22;34538;48.836;9.174;2023-04-15T05:48:11;3.00;99.90
48744;DHT22;34538;48.836;9.174;2023-04-15T05:50:40;3.10;99.90
48744;DHT22;34538;48.836;9.174;2023-04-15T05:53:07;3.30;99.90
48744;DHT22;34538;48.836;9.174;2023-04-15T05:55:34;3.30;99.90
48744;DHT22;34538;48.836;9.174;2023-04-15T05:58:01;3.50;99.90
48744;DHT22;34538;48.836;9.174;2023-04-15T06:00:28;3.70;99.90
48744;DHT22;34538;48.836;9.174;2023-04-15T06:02:57;3.80;99.90
48744;DHT22;34538;48.836;9.174;2023-04-15T06:05:24;4.00;99.90
48744;DHT22;34538;48.836;9.174;2023-04-15T06:07:51;4.20;99.90
48744;DHT22;34538;48.836;9.174;2023-04-15T06:10:18;4.30;99.90
48744;DHT22;34538;48.836;9.174;2023-04-15T06:12:45;4.50;99.90
48744;DHT22;34538;48.836;9.174;2023-04-15T06:15:12;4.70;99.90
48744;DHT22;34538;48.836;9.174;2023-04-15T06:17:38;5.00;99.90
48744;DHT22;34538;48.836;9.174;2023-04-15T06:20:08;5.30;99.90
48744;DHT22;34538;48.836;9.174;2023-04-15T06:22:36;5.60;99.90
48744;DHT22;34538;48.836;9.174;2023-04-15T06:25:04;5.90;99.90
48744;DHT22;34538;48.836;9.174;2023-04-15T06:27:32;6.20;99.90
48744;DHT22;34538;48.836;9.174;2023-04-15T06:29:59;6.40;99.90
48744;DHT22;34538;48.836;9.174;2023-04-15T06:32:26;6.70;99.90
48744;DHT22;34538;48.836;9.174;2023-04-15T06:34:53;6.90;99.90
48744;DHT22;34538;48.836;9.174;2023-04-15T06:37:21;7.10;99.90
48744;DHT22;34538;48.836;9.174;2023-04-15T06:39:48;7.30;99.90
48744;DHT22;34538;48.836;9.174;2023-04-15T06:42:15;7.30;99.90
48744;DHT22;34538;48.836;9.174;2023-04-15T06:44:42;7.40;99.90
48744;DHT22;34538;48.836;9.174;2023-04-15T06:47:09;7.40;99.90
48744;DHT22;34538;48.836;9.174;2023-04-15T06:49:37;7.50;99.90
48744;DHT22;34538;48.836;9.174;2023-04-15T06:52:05;7.50;99.90
48744;DHT22;34538;48.836;9.174;2023-04-15T06:54:33;7.50;99.90
48744;DHT22;34538;48.836;9.174;2023-04-15T06:57:00;7.60;99.90
48744;DHT22;34538;48.836;9.174;2023-04-15T06:59:27;7.70;99.90
48744;DHT22;34538;48.836;9.174;2023-04-15T07:01:53;7.70;99.90
48744;DHT22;34538;48.836;9.174;2023-04-15T07:04:20;7.80;99.90
48744;DHT22;34538;48.836;9.174;2023-04-15T07:06:47;7.90;99.90
48744;DHT22;34538;48.836;9.174;2023-04-15T07:09:14;8.00;99.90
48744;DHT22;34538;48.836;9.174;2023-04-15T07:11:42;8.10;99.90
48744;DHT22;34538;48.836;9.174;2023-04-15T07:14:09;8.20;99.90
48744;DHT22;34538;48.836;9.174;2023-04-15T07:16:36;8.30;99.90
48744;DHT22;34538;48.836;9.174;2023-04-15T07:19:03;8.30;99.90
48744;DHT22;34538;48.836;9.174;2023-04-15T07:21:30;8.40;99.90
48744;DHT22;34538;48.836;9.174;2023-04-15T07:23:57;8.40;99.90
48744;DHT22;34538;48.836;9.174;2023-04-15T07:26:24;8.40;99.90
48744;DHT22;34538;48.836;9.174;2023-04-15T07:28:52;8.40;99.90
48744;DHT22;34538;48.836;9.174;2023-04-15T07:31:19;8.40;99.90
48744;DHT22;34538;48.836;9.174;2023-04-15T07:33:46;8.40;99.90
48744;DHT22;34538;48.836;9.174;2023-04-15T07:36:13;8.40;99.90
48744;DHT22;34538;48.836;9.174;2023-04-15T07:38:41;8.40;99.90
48744;DHT22;34538;48.836;9.174;2023-04-15T07:41:07;8.50;99.90
48744;DHT22;34538;48.836;9.174;2023-04-15T07:43:35;8.50;99.90
48744;DHT22;34538;48.836;9.174;2023-04-15T07:46:03;8.60;99.90
48744;DHT22;34538;48.836;9.174;2023-04-15T07:48:31;8.80;99.90
48744;DHT22;34538;48.836;9.174;2023-04-15T07:50:58;8.90;99.90
48744;DHT22;34538;48.836;9.174;2023-04-15T07:53:25;9.00;99.90
48744;DHT22;34538;48.836;9.174;2023-04-15T07:55:52;9.20;99.90
48744;DHT22;34538;48.836;9.174;2023-04-15T07:58:18;9.30;99.90
48744;DHT22;34538;48.836;9.174;2023-04-15T08:00:45;9.30;99.90
48744;DHT22;34538;48.836;9.174;2023-04-15T08:03:14;9.40;99.90
48744;DHT22;34538;48.836;9.174;2023-04-15T08:05:40;9.50;99.90
48744;DHT22;34538;48.836;9.174;2023-04-15T08:08:08;9.60;99.90
48744;DHT22;34538;48.836;9.174;2023-04-15T08:10:34;9.70;99.90
48744;DHT22;34538;48.836;9.174;2023-04-15T08:13:01;9.80;99.90
48744;DHT22;34538;48.836;9.174;2023-04-15T08:15:28;10.00;99.90
48744;DHT22;34538;48.836;9.174;2023-04-15T08:17:57;10.00;99.90
48744;DHT22;34538;48.836;9.174;2023-04-15T08:20:26;10.10;99.90
48744;DHT22;34538;48.836;9.174;2023-04-15T08:22:53;10.20;99.90
48744;DHT22;34538;48.836;9.174;2023-04-15T08:25:20;10.40;99.90
48744;DHT22;34538;48.836;9.174;2023-04-15T08:27:47;10.40;99.90
48744;DHT22;34538;48.836;9.174;2023-04-15T08:30:14;10.40;99.90
48744;DHT22;34538;48.836;9.174;2023-04-15T08:32:41;10.50;99.90
48744;DHT22;34538;48.836;9.174;2023-04-15T08:35:11;10.70;99.90
48744;DHT22;34538;48.836;9.174;2023-04-15T08:37:39;10.80;99.90
48744;DHT22;34538;48.836;9.174;2023-04-15T08:40:08;11.00;99.90
48744;DHT22;34538;48.836;9.174;2023-04-15T08:42:36;11.10;99.90
48744;DHT22;34538;48.836;9.174;2023-04-15T08:45:08;11.20;99.90
48744;DHT22;34538;48.836;9.174;2023-04-15T08:47:36;11.30;99.90
48744;DHT22;34538;48.836;9.174;2023-04-15T08:50:05;11.40;99.90
48744;DHT22;34538;48.836;9.174;2023-04-15T08:52:34;11.50;99.90
48744;DHT22;34538;48.836;9.174;2023-04-15T08:55:03;11.60;99.90
48744;DHT22;34538;48.836;9.174;2023-04-15T08:57:31;11.70;99.90
48744;DHT22;34538;48.836;9.174;2023-04-15T09:00:01;11.80;99.90
48744;DHT22;34538;48.836;9.174;2023-04-15T09:02:28;11.80;99.90
48744;DHT22;34538;48.836;9.174;2023-04-15T09:04:55;11.80;99.90
48744;DHT22;34538;48.836;9.174;2023-04-15T09:07:22;11.90;99.90
48744;DHT22;34538;48.836;9.174;2023-04-15T09:09:49;12.00;99.90
48744;DHT22;34538;48.836;9.174;2023-04-15T09:12:18;12.00;99.90
48744;DHT22;34538;48.836;9.174;2023-04-15T09:14:45;12.10;99.90
48744;DHT22;34538;48.836;9.174;2023-04-15T09:17:12;12.10;99.90
48744;DHT22;34538;48.836;9.174;2023-04-15T09:19:44;12.20;99.90
48744;DHT22;34538;48.836;9.174;2023-04-15T09:22:11;12.30;99.90
48744;DHT22;34538;48.836;9.174;2023-04-15T09:24:39;12.50;99.90
48744;DHT22;34538;48.836;9.174;2023-04-15T09:27:07;12.60;99.90
48744;DHT22;34538;48.836;9.174;2023-04-15T09:29:36;12.70;99.90
48744;DHT22;34538;48.836;9.174;2023-04-15T09:32:10;12.80;99.90
48744;DHT22;34538;48.836;9.174;2023-04-15T09:34:37;12.90;99.50
48744;DHT22;34538;48.836;9.174;2023-04-15T09:37:04;12.80;99.50
48744;DHT22;34538;48.836;9.174;2023-04-15T09:39:47;12.90;99.00
48744;DHT22;34538;48.836;9.174;2023-04-15T09:42:15;12.90;99.90
48744;DHT22;34538;48.836;9.174;2023-04-15T09:44:50;13.00;99.50
48744;DHT22;34538;48.836;9.174;2023-04-15T09:47:26;13.10;99.70
48744;DHT22;34538;48.836;9.174;2023-04-15T09:49:57;13.10;98.90
48744;DHT22;34538;48.836;9.174;2023-04-15T09:52:24;13.20;99.30
48744;DHT22;34538;48.836;9.174;2023-04-15T09:54:53;13.20;98.40
48744;DHT22;34538;48.836;9.174;2023-04-15T09:57:21;13.30;98.50
48744;DHT22;34538;48.836;9.174;2023-04-15T09:59:49;13.20;99.20
48744;DHT22;34538;48.836;9.174;2023-04-15T10:02:18;13.20;98.60
48744;DHT22;34538;48.836;9.174;2023-04-15T10:04:47;13.20;97.90
48744;DHT22;34538;48.836;9.174;2023-04-15T10:07:14;13.20;99.10
48744;DHT22;34538;48.836;9.174;2023-04-15T10:09:45;13.30;98.30
48744;DHT22;34538;48.836;9.174;2023-04-15T10:12:12;13.30;98.50
48744;DHT22;34538;48.836;9.174;2023-04-15T10:14:41;13.30;98.90
48744;DHT22;34538;48.836;9.174;2023-04-15T10:17:11;13.30;99.10
48744;DHT22;34538;48.836;9.174;2023-04-15T10:19:39;13.30;98.20
48744;DHT22;34538;48.836;9.174;2023-04-15T10:22:07;13.30;98.60
48744;DHT22;34538;48.836;9.174;2023-04-15T10:24:33;13.40;98.30
48744;DHT22;34538;48.836;9.174;2023-04-15T10:27:02;13.50;99.10
48744;DHT22;34538;48.836;9.174;2023-04-15T10:29:30;13.50;99.10
48744;DHT22;34538;48.836;9.174;2023-04-15T10:31:58;13.60;99.60
48744;DHT22;34538;48.836;9.174;2023-04-15T10:34:27;13.70;98.80
48744;DHT22;34538;48.836;9.174;2023-04-15T10:36:55;13.80;98.30
48744;DHT22;34538;48.836;9.174;2023-04-15T10:39:37;13.90;98.30
48744;DHT22;34538;48.836;9.174;2023-04-15T10:42:09;13.90;97.50
48744;DHT22;34538;48.836;9.174;2023-04-15T10:44:36;14.00;98.10
48744;DHT22;34538;48.836;9.174;2023-04-15T10:47:08;13.90;97.10
48744;DHT22;34538;48.836;9.174;2023-04-15T10:49:47;13.80;96.70
48744;DHT22;34538;48.836;9.174;2023-04-15T10:52:16;13.80;97.90
48744;DHT22;34538;48.836;9.174;2023-04-15T10:54:43;13.70;96.60
48744;DHT22;34538;48.836;9.174;2023-04-15T10:57:21;13.70;97.80
48744;DHT22;34538;48.836;9.174;2023-04-15T11:00:09;13.80;98.00
48744;DHT22;34538;48.836;9.174;2023-04-15T11:02:45;13.90;97.20
48744;DHT22;34538;48.836;9.174;2023-04-15T11:05:14;13.80;97.20
48744;DHT22;34538;48.836;9.174;2023-04-15T11:07:53;13.90;98.50
48744;DHT22;34538;48.836;9.174;2023-04-15T11:10:50;14.00;97.60
48744;DHT22;34538;48.836;9.174;2023-04-15T11:13:27;14.10;98.50
48744;DHT22;34538;48.836;9.174;2023-04-15T11:15:57;14.20;98.30
48744;DHT22;34538;48.836;9.174;2023-04-15T11:18:28;14.30;97.50
48744;DHT22;34538;48.836;9.174;2023-04-15T11:20:59;14.30;97.30
48744;DHT22;34538;48.836;9.174;2023-04-15T11:23:31;14.40;97.60
48744;DHT22;34538;48.836;9.174;2023-04-15T11:25:59;14.40;97.30
48744;DHT22;34538;48.836;9.174;2023-04-15T11:28:28;14.40;95.70
48744;DHT22;34538;48.836;9.174;2023-04-15T11:30:56;14.40;95.30
48744;DHT22;34538;48.836;9.174;2023-04-15T11:33:24;14.30;96.10
48744;DHT22;34538;48.836;9.174;2023-04-15T11:35:52;14.30;95.60
48744;DHT22;34538;48.836;9.174;2023-04-15T11:38:21;14.20;95.30
48744;DHT22;34538;48.836;9.174;2023-04-15T11:40:49;14.10;96.80
48744;DHT22;34538;48.836;9.174;2023-04-15T11:43:18;13.90;97.50
48744;DHT22;34538;48.836;9.174;2023-04-15T11:45:53;13.80;98.00
48744;DHT22;34538;48.836;9.174;2023-04-15T11:48:22;13.80;98.20
48744;DHT22;34538;48.836;9.174;2023-04-15T11:50:53;13.90;98.50
48744;DHT22;34538;48.836;9.174;2023-04-15T11:53:22;13.90;98.50
48744;DHT22;34538;48.836;9.174;2023-04-15T11:55:53;14.00;97.70
48744;DHT22;34538;48.836;9.174;2023-04-15T11:58:21;14.10;98.00
48744;DHT22;34538;48.836;9.174;2023-04-15T12:00:50;14.10;97.20
48744;DHT22;34538;48.836;9.174;2023-04-15T12:03:21;14.20;97.20
48744;DHT22;34538;48.836;9.174;2023-04-15T12:06:21;14.30;96.50
48744;DHT22;34538;48.836;9.174;2023-04-15T12:08:57;14.30;97.00
48744;DHT22;34538;48.836;9.174;2023-04-15T12:11:29;14.20;95.30
48744;DHT22;34538;48.836;9.174;2023-04-15T12:14:07;14.10;95.50
48744;DHT22;34538;48.836;9.174;2023-04-15T12:16:39;14.00;96.60
48744;DHT22;34538;48.836;9.174;2023-04-15T12:19:09;13.90;96.50
48744;DHT22;34538;48.836;9.174;2023-04-15T12:21:37;13.70;96.50
48744;DHT22;34538;48.836;9.174;2023-04-15T12:24:07;13.50;98.30
48744;DHT22;34538;48.836;9.174;2023-04-15T12:26:36;13.00;99.90
48744;DHT22;34538;48.836;9.174;2023-04-15T12:29:05;12.40;99.90
48744;DHT22;34538;48.836;9.174;2023-04-15T12:31:33;11.60;99.90
48744;DHT22;34538;48.836;9.174;2023-04-15T12:34:00;10.90;99.90
48744;DHT22;34538;48.836;9.174;2023-04-15T12:36:28;10.40;99.90
48744;DHT22;34538;48.836;9.174;2023-04-15T12:38:56;9.90;99.90
48744;DHT22;34538;48.836;9.174;2023-04-15T12:41:24;9.60;99.90
48744;DHT22;34538;48.836;9.174;2023-04-15T12:43:51;9.50;99.90
48744;DHT22;34538;48.836;9.174;2023-04-15T12:46:18;9.40;99.90
48744;DHT22;34538;48.836;9.174;2023-04-15T12:48:45;9.40;99.90
48744;DHT22;34538;48.836;9.174;2023-04-15T12:51:12;9.40;99.90
48744;DHT22;34538;48.836;9.174;2023-04-15T12:53:39;9.50;99.90
48744;DHT22;34538;48.836;9.174;2023-04-15T12:56:06;9.60;99.90
48744;DHT22;34538;48.836;9.174;2023-04-15T12:58:35;9.80;99.90
48744;DHT22;34538;48.836;9.174;2023-04-15T13:01:02;9.90;99.90
48744;DHT22;34538;48.836;9.174;2023-04-15T13:03:29;10.00;99.90
48744;DHT22;34538;48.836;9.174;2023-04-15T13:05:59;10.10;99.90
48744;DHT22;34538;48.836;9.174;2023-04-15T13:08:26;10.30;99.90
48744;DHT22;34538;48.836;9.174;2023-04-15T13:10:53;10.50;99.90
48744;DHT22;34538;48.836;9.174;2023-04-15T13:13:20;10.60;99.90
48744;DHT22;34538;48.836;9.174;2023-04-15T13:15:48;10.80;99.90
48744;DHT22;34538;48.836;9.174;2023-04-15T13:18:15;10.90;99.90
48744;DHT22;34538;48.836;9.174;2023-04-15T13:20:42;11.10;99.90
48744;DHT22;34538;48.836;9.174;2023-04-15T13:23:09;11.10;99.90
48744;DHT22;34538;48.836;9.174;2023-04-15T13:25:36;11.20;99.90
48744;DHT22;34538;48.836;9.174;2023-04-15T13:28:03;11.40;99.90
48744;DHT22;34538;48.836;9.174;2023-04-15T13:30:30;11.50;99.90
48744;DHT22;34538;48.836;9.174;2023-04-15T13:32:58;11.60;99.90
48744;DHT22;34538;48.836;9.174;2023-04-15T13:35:25;11.70;99.90
48744;DHT22;34538;48.836;9.174;2023-04-15T13:37:53;11.80;99.70
48744;DHT22;34538;48.836;9.174;2023-04-15T13:40:20;11.90;97.20
48744;DHT22;34538;48.836;9.174;2023-04-15T13:42:47;12.00;97.60
48744;DHT22;34538;48.836;9.174;2023-04-15T13:45:14;12.10;96.10
48744;DHT22;34538;48.836;9.174;2023-04-15T13:47:41;12.20;96.50
48744;DHT22;34538;48.836;9.174;2023-04-15T13:50:09;12.20;95.70
48744;DHT22;34538;48.836;9.174;2023-04-15T13:52:36;12.30;96.00
48744;DHT22;34538;48.836;9.174;2023-04-15T13:55:04;12.20;97.00
48744;DHT22;34538;48.836;9.174;2023-04-15T13:57:31;12.20;96.00
48744;DHT22;34538;48.836;9.174;2023-04-15T13:59:58;12.10;95.80
48744;DHT22;34538;48.836;9.174;2023-04-15T14:02:25;12.10;96.50
48744;DHT22;34538;48.836;9.174;2023-04-15T14:04:52;12.00;95.90
48744;DHT22;34538;48.836;9.174;2023-04-15T14:07:20;12.00;97.00
48744;DHT22;34538;48.836;9.174;2023-04-15T14:09:47;12.10;96.90
48744;DHT22;34538;48.836;9.174;2023-04-15T14:12:14;12.10;96.80
48744;DHT22;34538;48.836;9.174;2023-04-15T14:14:41;12.10;96.50
48744;DHT22;34538;48.836;9.174;2023-04-15T14:17:08;12.10;95.50
48744;DHT22;34538;48.836;9.174;2023-04-15T14:19:34;12.00;95.60
48744;DHT22;34538;48.836;9.174;2023-04-15T14:22:01;12.00;94.80
48744;DHT22;34538;48.836;9.174;2023-04-15T14:24:30;12.00;94.60
48744;DHT22;34538;48.836;9.174;2023-04-15T14:26:57;12.00;95.00
48744;DHT22;34538;48.836;9.174;2023-04-15T14:29:24;11.90;95.40
48744;DHT22;34538;48.836;9.174;2023-04-15T14:31:51;11.90;95.50
48744;DHT22;34538;48.836;9.174;2023-04-15T14:34:18;11.90;95.80
48744;DHT22;34538;48.836;9.174;2023-04-15T14:36:47;11.90;95.90
48744;DHT22;34538;48.836;9.174;2023-04-15T14:39:13;11.90;95.40
48744;DHT22;34538;48.836;9.174;2023-04-15T14:41:41;11.90;95.20
48744;DHT22;34538;48.836;9.174;2023-04-15T14:44:08;11.80;96.10
48744;DHT22;34538;48.836;9.174;2023-04-15T14:46:36;11.80;95.30
48744;DHT22;34538;48.836;9.174;2023-04-15T14:49:03;11.70;96.10
48744;DHT22;34538;48.836;9.174;2023-04-15T14:51:30;11.70;96.10
48744;DHT22;34538;48.836;9.174;2023-04-15T14:53:57;11.60;96.30
48744;DHT22;34538;48.836;9.174;2023-04-15T14:56:23;11.50;96.50
48744;DHT22;34538;48.836;9.174;2023-04-15T14:58:52;11.40;96.60
48744;DHT22;34538;48.836;9.174;2023-04-15T15:01:18;11.40;96.70
48744;DHT22;34538;48.836;9.174;2023-04-15T15:03:45;11.40;96.80
48744;DHT22;34538;48.836;9.174;2023-04-15T15:06:12;11.30;97.30
48744;DHT22;34538;48.836;9.174;2023-04-15T15:08:39;11.30;97.70
48744;DHT22;34538;48.836;9.174;2023-04-15T15:11:06;11.20;97.90
48744;DHT22;34538;48.836;9.174;2023-04-15T15:13:33;11.20;97.80
48744;DHT22;34538;48.836;9.174;2023-04-15T15:16:01;11.10;97.70
48744;DHT22;34538;48.836;9.174;2023-04-15T15:18:29;11.00;98.20
48744;DHT22;34538;48.836;9.174;2023-04-15T15:20:55;11.00;98.10
48744;DHT22;34538;48.836;9.174;2023-04-15T15:23:22;11.00;98.30
48744;DHT22;34538;48.836;9.174;2023-04-15T15:25:49;11.00;98.50
48744;DHT22;34538;48.836;9.174;2023-04-15T15:28:16;10.90;98.70
48744;DHT22;34538;48.836;9.174;2023-04-15T15:30:43;10.80;98.60
48744;DHT22;34538;48.836;9.174;2023-04-15T15:33:11;10.80;98.60
48744;DHT22;34538;48.836;9.174;2023-04-15T15:35:38;10.80;99.20
48744;DHT22;34538;48.836;9.174;2023-04-15T15:38:05;10.90;98.80
48744;DHT22;34538;48.836;9.174;2023-04-15T15:40:32;10.80;98.70
48744;DHT22;34538;48.836;9.174;2023-04-15T15:42:59;10.90;98.30
48744;DHT22;34538;48.836;9.174;2023-04-15T15:45:26;10.90;98.60